sensor_id;sensor_type;location;lat;lon;timestamp;pressure;altitude;pressure_sealevel;temperature;humidity
10464;BME280;5279;42.048;24.638;2023-01-26T00:02:21;98273.69;;;2.40;100.00
10464;BME280;5279;42.048;24.638;2023-01-26T00:04:48;98267.66;;;2.38;100.00
10464;BME280;5279;42.048;24.638;2023-01-26T00:07:15;98244.06;;;2.39;100.00
10464;BME280;5279;42.048;24.638;2023-01-26T00:09:42;98244.91;;;2.40;100.00
10464;BME280;5279;42.048;24.638;2023-01-26T00:12:08;98235.34;;;2.39;100.00
10464;BME280;5279;42.048;24.638;2023-01-26T00:14:35;98230.34;;;2.34;100.00
10464;BME280;5279;42.048;24.638;2023-01-26T00:17:20;98224.63;;;2.28;100.00
10464;BME280;5279;42.048;24.638;2023-01-26T00:19:56;98224.78;;;2.25;100.00
10464;BME280;5279;42.048;24.638;2023-01-26T00:22:24;98230.00;;;2.25;100.00
10464;BME280;5279;42.048;24.638;2023-01-26T00:24:51;98233.22;;;2.30;100.00
10464;BME280;5279;42.048;24.638;2023-01-26T00:27:18;98236.69;;;2.30;100.00
10464;BME280;5279;42.048;24.638;2023-01-26T00:29:45;98234.91;;;2.31;100.00
10464;BME280;5279;42.048;24.638;2023-01-26T00:32:12;98227.81;;;2.33;100.00
10464;BME280;5279;42.048;24.638;2023-01-26T00:34:39;98223.59;;;2.30;100.00
10464;BME280;5279;42.048;24.638;2023-01-26T00:37:07;98228.31;;;2.06;100.00
10464;BME280;5279;42.048;24.638;2023-01-26T00:39:34;98223.16;;;2.05;100.00
10464;BME280;5279;42.048;24.638;2023-01-26T00:42:01;98215.22;;;1.89;100.00
10464;BME280;5279;42.048;24.638;2023-01-26T00:44:40;98206.63;;;1.70;100.00
10464;BME280;5279;42.048;24.638;2023-01-26T00:47:08;98208.69;;;1.81;100.00
10464;BME280;5279;42.048;24.638;2023-01-26T00:49:35;98197.09;;;1.86;100.00
10464;BME280;5279;42.048;24.638;2023-01-26T00:52:02;98199.25;;;1.95;100.00
10464;BME280;5279;42.048;24.638;2023-01-26T00:54:31;98210.34;;;2.00;100.00
10464;BME280;5279;42.048;24.638;2023-01-26T00:56:58;98212.69;;;2.05;100.00
10464;BME280;5279;42.048;24.638;2023-01-26T00:59:25;98208.94;;;2.10;100.00
10464;BME280;5279;42.048;24.638;2023-01-26T01:01:52;98205.31;;;2.13;100.00
10464;BME280;5279;42.048;24.638;2023-01-26T01:04:19;98206.00;;;2.16;100.00
10464;BME280;5279;42.048;24.638;2023-01-26T01:06:46;98205.31;;;2.13;100.00
10464;BME280;5279;42.048;24.638;2023-01-26T01:09:12;98206.84;;;2.17;100.00
10464;BME280;5279;42.048;24.638;2023-01-26T01:11:41;98217.25;;;2.18;100.00
10464;BME280;5279;42.048;24.638;2023-01-26T01:14:10;98198.94;;;2.18;100.00
10464;BME280;5279;42.048;24.638;2023-01-26T01:16:37;98197.25;;;2.17;100.00
10464;BME280;5279;42.048;24.638;2023-01-26T01:19:04;98203.31;;;2.18;100.00
10464;BME280;5279;42.048;24.638;2023-01-26T01:21:31;98197.56;;;2.11;100.00
10464;BME280;5279;42.048;24.638;2023-01-26T01:23:58;98205.84;;;2.19;100.00
10464;BME280;5279;42.048;24.638;2023-01-26T01:26:25;98195.00;;;2.10;100.00
10464;BME280;5279;42.048;24.638;2023-01-26T01:28:54;98192.16;;;2.14;100.00
10464;BME280;5279;42.048;24.638;2023-01-26T01:31:22;98192.53;;;2.07;100.00
10464;BME280;5279;42.048;24.638;2023-01-26T01:33:50;98195.25;;;2.05;100.00
10464;BME280;5279;42.048;24.638;2023-01-26T01:36:17;98202.16;;;1.89;100.00
10464;BME280;5279;42.048;24.638;2023-01-26T01:38:45;98174.66;;;1.82;100.00
10464;BME280;5279;42.048;24.638;2023-01-26T01:41:12;98170.81;;;1.89;100.00
10464;BME280;5279;42.048;24.638;2023-01-26T01:43:40;98166.13;;;1.96;100.00
10464;BME280;5279;42.048;24.638;2023-01-26T01:46:13;98163.28;;;2.00;100.00
10464;BME280;5279;42.048;24.638;2023-01-26T01:48:46;98158.06;;;2.00;100.00
10464;BME280;5279;42.048;24.638;2023-01-26T01:51:19;98154.50;;;2.01;100.00
10464;BME280;5279;42.048;24.638;2023-01-26T01:53:49;98154.19;;;2.07;100.00
10464;BME280;5279;42.048;24.638;2023-01-26T01:56:19;98161.13;;;2.08;100.00
10464;BME280;5279;42.048;24.638;2023-01-26T01:58:48;98162.03;;;2.07;100.00
10464;BME280;5279;42.048;24.638;2023-01-26T02:01:18;98158.25;;;2.13;100.00
10464;BME280;5279;42.048;24.638;2023-01-26T02:03:47;98163.47;;;2.13;100.00
10464;BME280;5279;42.048;24.638;2023-01-26T02:06:20;98162.03;;;2.07;100.00
10464;BME280;5279;42.048;24.638;2023-01-26T02:08:50;98154.34;;;2.04;100.00
10464;BME280;5279;42.048;24.638;2023-01-26T02:11:20;98146.66;;;2.01;100.00
10464;BME280;5279;42.048;24.638;2023-01-26T02:13:50;98153.16;;;1.94;100.00
10464;BME280;5279;42.048;24.638;2023-01-26T02:16:19;98144.69;;;1.89;100.00
10464;BME280;5279;42.048;24.638;2023-01-26T02:18:46;98148.56;;;1.82;100.00
10464;BME280;5279;42.048;24.638;2023-01-26T02:21:15;98140.25;;;1.57;100.00
10464;BME280;5279;42.048;24.638;2023-01-26T02:26:34;98139.63;;;1.52;100.00
10464;BME280;5279;42.048;24.638;2023-01-26T02:29:02;98134.72;;;1.63;100.00
10464;BME280;5279;42.048;24.638;2023-01-26T02:31:30;98138.56;;;1.73;100.00
10464;BME280;5279;42.048;24.638;2023-01-26T02:33:57;98123.41;;;1.80;100.00
10464;BME280;5279;42.048;24.638;2023-01-26T02:36:25;98125.63;;;1.87;100.00
10464;BME280;5279;42.048;24.638;2023-01-26T02:39:10;98123.03;;;1.87;100.00
10464;BME280;5279;42.048;24.638;2023-01-26T02:41:41;98114.00;;;1.93;100.00
10464;BME280;5279;42.048;24.638;2023-01-26T02:44:26;98107.63;;;1.98;100.00
10464;BME280;5279;42.048;24.638;2023-01-26T02:46:53;98109.03;;;1.88;100.00
10464;BME280;5279;42.048;24.638;2023-01-26T02:49:20;98111.97;;;1.82;100.00
10464;BME280;5279;42.048;24.638;2023-01-26T02:52:13;98107.22;;;1.73;100.00
10464;BME280;5279;42.048;24.638;2023-01-26T02:54:40;98098.75;;;1.68;100.00
10464;BME280;5279;42.048;24.638;2023-01-26T02:57:26;98099.44;;;1.72;100.00
10464;BME280;5279;42.048;24.638;2023-01-26T02:59:53;98102.00;;;1.73;100.00
10464;BME280;5279;42.048;24.638;2023-01-26T03:02:20;98096.63;;;1.76;100.00
10464;BME280;5279;42.048;24.638;2023-01-26T03:04:47;98099.81;;;1.81;100.00
10464;BME280;5279;42.048;24.638;2023-01-26T03:07:13;98090.06;;;1.85;100.00
10464;BME280;5279;42.048;24.638;2023-01-26T03:09:40;98093.28;;;1.90;100.00
10464;BME280;5279;42.048;24.638;2023-01-26T03:12:07;98096.78;;;1.89;100.00
10464;BME280;5279;42.048;24.638;2023-01-26T03:14:35;98081.66;;;1.95;100.00
10464;BME280;5279;42.048;24.638;2023-01-26T03:17:02;98082.50;;;1.96;100.00
10464;BME280;5279;42.048;24.638;2023-01-26T03:19:29;98071.97;;;1.97;100.00
10464;BME280;5279;42.048;24.638;2023-01-26T03:22:10;98074.59;;;1.97;100.00
10464;BME280;5279;42.048;24.638;2023-01-26T03:24:54;98071.81;;;2.00;100.00
10464;BME280;5279;42.048;24.638;2023-01-26T03:27:40;98064.97;;;1.98;100.00
10464;BME280;5279;42.048;24.638;2023-01-26T03:30:10;98064.91;;;1.99;100.00
10464;BME280;5279;42.048;24.638;2023-01-26T03:32:37;98053.59;;;1.99;100.00
10464;BME280;5279;42.048;24.638;2023-01-26T03:35:05;98058.75;;;2.00;100.00
10464;BME280;5279;42.048;24.638;2023-01-26T03:37:34;98059.56;;;2.01;100.00
10464;BME280;5279;42.048;24.638;2023-01-26T03:40:10;98055.03;;;2.04;100.00
10464;BME280;5279;42.048;24.638;2023-01-26T03:42:54;98053.38;;;2.03;100.00
10464;BME280;5279;42.048;24.638;2023-01-26T03:45:40;98038.34;;;2.07;100.00
10464;BME280;5279;42.048;24.638;2023-01-26T03:48:27;98034.97;;;2.05;100.00
10464;BME280;5279;42.048;24.638;2023-01-26T03:51:11;98030.94;;;1.99;100.00
10464;BME280;5279;42.048;24.638;2023-01-26T03:53:55;98024.47;;;2.06;100.00
10464;BME280;5279;42.048;24.638;2023-01-26T03:56:39;98021.75;;;2.08;100.00
10464;BME280;5279;42.048;24.638;2023-01-26T03:59:07;98027.88;;;2.07;100.00
10464;BME280;5279;42.048;24.638;2023-01-26T04:01:36;98026.13;;;2.07;100.00
10464;BME280;5279;42.048;24.638;2023-01-26T04:04:05;98021.69;;;2.09;100.00
10464;BME280;5279;42.048;24.638;2023-01-26T04:06:49;98017.44;;;2.07;100.00
10464;BME280;5279;42.048;24.638;2023-01-26T04:09:34;98015.16;;;2.01;100.00
10464;BME280;5279;42.048;24.638;2023-01-26T04:12:04;98019.63;;;1.99;100.00
10464;BME280;5279;42.048;24.638;2023-01-26T04:14:31;98019.38;;;2.03;100.00
10464;BME280;5279;42.048;24.638;2023-01-26T04:17:17;98012.63;;;1.99;100.00
10464;BME280;5279;42.048;24.638;2023-01-26T04:20:02;98008.31;;;1.98;100.00
10464;BME280;5279;42.048;24.638;2023-01-26T04:22:46;98010.19;;;1.96;100.00
10464;BME280;5279;42.048;24.638;2023-01-26T04:25:15;98008.31;;;1.98;100.00
10464;BME280;5279;42.048;24.638;2023-01-26T04:27:42;98013.53;;;1.98;100.00
10464;BME280;5279;42.048;24.638;2023-01-26T04:30:13;98010.03;;;1.99;100.00
10464;BME280;5279;42.048;24.638;2023-01-26T04:32:41;98002.94;;;2.01;100.00
10464;BME280;5279;42.048;24.638;2023-01-26T04:35:09;97998.88;;;1.96;100.00
10464;BME280;5279;42.048;24.638;2023-01-26T04:37:36;97999.91;;;1.93;100.00
10464;BME280;5279;42.048;24.638;2023-01-26T04:40:03;98001.44;;;1.97;100.00
10464;BME280;5279;42.048;24.638;2023-01-26T04:42:30;97994.34;;;1.99;100.00
10464;BME280;5279;42.048;24.638;2023-01-26T04:44:57;97981.28;;;1.99;100.00
10464;BME280;5279;42.048;24.638;2023-01-26T04:47:24;97992.47;;;2.01;100.00
10464;BME280;5279;42.048;24.638;2023-01-26T04:49:52;97989.13;;;1.99;100.00
10464;BME280;5279;42.048;24.638;2023-01-26T04:52:19;97992.94;;;2.09;100.00
10464;BME280;5279;42.048;24.638;2023-01-26T04:54:46;98000.00;;;2.07;100.00
10464;BME280;5279;42.048;24.638;2023-01-26T04:57:13;97997.22;;;2.10;100.00
10464;BME280;5279;42.048;24.638;2023-01-26T04:59:40;97987.09;;;2.04;100.00
10464;BME280;5279;42.048;24.638;2023-01-26T05:02:08;97985.41;;;2.03;100.00
10464;BME280;5279;42.048;24.638;2023-01-26T05:04:35;97988.78;;;2.05;100.00
10464;BME280;5279;42.048;24.638;2023-01-26T05:07:03;97995.44;;;2.11;100.00
10464;BME280;5279;42.048;24.638;2023-01-26T05:09:30;97984.25;;;2.09;100.00
10464;BME280;5279;42.048;24.638;2023-01-26T05:11:57;97986.91;;;2.07;100.00
10464;BME280;5279;42.048;24.638;2023-01-26T05:14:43;97989.69;;;2.04;100.00
10464;BME280;5279;42.048;24.638;2023-01-26T05:17:10;97983.91;;;2.15;100.00
10464;BME280;5279;42.048;24.638;2023-01-26T05:19:37;97986.41;;;2.16;100.00
10464;BME280;5279;42.048;24.638;2023-01-26T05:22:05;97982.03;;;2.17;100.00
10464;BME280;5279;42.048;24.638;2023-01-26T05:24:33;97977.81;;;2.14;100.00
10464;BME280;5279;42.048;24.638;2023-01-26T05:27:00;97968.38;;;2.12;100.00
10464;BME280;5279;42.048;24.638;2023-01-26T05:29:45;97965.00;;;2.10;100.00
10464;BME280;5279;42.048;24.638;2023-01-26T05:32:12;97973.84;;;2.07;100.00
10464;BME280;5279;42.048;24.638;2023-01-26T05:34:38;97967.03;;;2.05;100.00
10464;BME280;5279;42.048;24.638;2023-01-26T05:37:07;97964.50;;;2.03;100.00
10464;BME280;5279;42.048;24.638;2023-01-26T05:39:33;97962.97;;;1.99;100.00
10464;BME280;5279;42.048;24.638;2023-01-26T05:42:00;97952.69;;;1.96;100.00
10464;BME280;5279;42.048;24.638;2023-01-26T05:44:27;97961.28;;;1.98;100.00
10464;BME280;5279;42.048;24.638;2023-01-26T05:46:54;97961.28;;;1.98;100.00
10464;BME280;5279;42.048;24.638;2023-01-26T05:49:21;97958.66;;;1.98;100.00
10464;BME280;5279;42.048;24.638;2023-01-26T05:51:48;97957.75;;;1.99;100.00
10464;BME280;5279;42.048;24.638;2023-01-26T05:54:16;97962.97;;;1.99;100.00
10464;BME280;5279;42.048;24.638;2023-01-26T05:56:43;97960.38;;;1.99;100.00
10464;BME280;5279;42.048;24.638;2023-01-26T05:59:10;97941.91;;;2.02;100.00
10464;BME280;5279;42.048;24.638;2023-01-26T06:01:36;97951.34;;;2.05;100.00
10464;BME280;5279;42.048;24.638;2023-01-26T06:04:04;97943.59;;;2.03;100.00
10464;BME280;5279;42.048;24.638;2023-01-26T06:06:31;97946.94;;;1.90;100.00
10464;BME280;5279;42.048;24.638;2023-01-26T06:08:58;97938.69;;;1.82;100.00
10464;BME280;5279;42.048;24.638;2023-01-26T06:11:26;97947.06;;;1.88;100.00
10464;BME280;5279;42.048;24.638;2023-01-26T06:13:53;97939.03;;;1.91;100.00
10464;BME280;5279;42.048;24.638;2023-01-26T06:16:20;97959.09;;;1.91;100.00
10464;BME280;5279;42.048;24.638;2023-01-26T06:18:47;97950.81;;;1.67;100.00
10464;BME280;5279;42.048;24.638;2023-01-26T06:21:14;97944.38;;;1.57;100.00
10464;BME280;5279;42.048;24.638;2023-01-26T06:23:41;97953.75;;;1.61;100.00
10464;BME280;5279;42.048;24.638;2023-01-26T06:26:08;97949.44;;;1.60;100.00
10464;BME280;5279;42.048;24.638;2023-01-26T06:28:36;97960.47;;;1.65;100.00
10464;BME280;5279;42.048;24.638;2023-01-26T06:31:05;97949.53;;;1.74;100.00
10464;BME280;5279;42.048;24.638;2023-01-26T06:33:34;97952.66;;;1.81;100.00
10464;BME280;5279;42.048;24.638;2023-01-26T06:36:03;97948.13;;;1.84;100.00
10464;BME280;5279;42.048;24.638;2023-01-26T06:38:30;97946.09;;;1.89;100.00
10464;BME280;5279;42.048;24.638;2023-01-26T06:40:58;97943.31;;;1.92;100.00
10464;BME280;5279;42.048;24.638;2023-01-26T06:43:27;97943.94;;;1.97;100.00
10464;BME280;5279;42.048;24.638;2023-01-26T06:45:56;97943.59;;;2.03;100.00
10464;BME280;5279;42.048;24.638;2023-01-26T06:48:24;97939.88;;;2.07;100.00
10464;BME280;5279;42.048;24.638;2023-01-26T06:50:51;97932.81;;;2.09;100.00
10464;BME280;5279;42.048;24.638;2023-01-26T06:53:28;97937.59;;;2.01;100.00
10464;BME280;5279;42.048;24.638;2023-01-26T06:55:55;97932.81;;;2.09;100.00
10464;BME280;5279;42.048;24.638;2023-01-26T06:58:22;97927.41;;;2.12;100.00
10464;BME280;5279;42.048;24.638;2023-01-26T07:00:49;97929.88;;;2.15;100.00
10464;BME280;5279;42.048;24.638;2023-01-26T07:03:18;97934.31;;;2.13;100.00
10464;BME280;5279;42.048;24.638;2023-01-26T07:05:44;97929.41;;;2.07;100.00
10464;BME280;5279;42.048;24.638;2023-01-26T07:08:13;97926.56;;;2.12;100.00
10464;BME280;5279;42.048;24.638;2023-01-26T07:10:40;97916.78;;;2.15;100.00
10464;BME280;5279;42.048;24.638;2023-01-26T07:13:07;97913.84;;;2.22;100.00
10464;BME280;5279;42.048;24.638;2023-01-26T07:15:34;97901.91;;;2.32;100.00
10464;BME280;5279;42.048;24.638;2023-01-26T07:18:01;97907.81;;;2.35;100.00
10464;BME280;5279;42.048;24.638;2023-01-26T07:20:31;97904.28;;;2.36;100.00
10464;BME280;5279;42.048;24.638;2023-01-26T07:22:58;97910.34;;;2.37;100.00
10464;BME280;5279;42.048;24.638;2023-01-26T07:25:26;97903.94;;;2.27;100.00
10464;BME280;5279;42.048;24.638;2023-01-26T07:27:56;97907.09;;;2.17;100.00
10464;BME280;5279;42.048;24.638;2023-01-26T07:30:26;97897.03;;;2.26;100.00
10464;BME280;5279;42.048;24.638;2023-01-26T07:32:52;97904.69;;;2.29;100.00
10464;BME280;5279;42.048;24.638;2023-01-26T07:35:19;97895.84;;;2.31;100.00
10464;BME280;5279;42.048;24.638;2023-01-26T07:37:47;97892.41;;;2.31;100.00
10464;BME280;5279;42.048;24.638;2023-01-26T07:40:14;97890.25;;;2.37;100.00
10464;BME280;5279;42.048;24.638;2023-01-26T07:42:50;97886.91;;;2.19;100.00
10464;BME280;5279;42.048;24.638;2023-01-26T07:45:18;97888.94;;;2.30;100.00
10464;BME280;5279;42.048;24.638;2023-01-26T07:47:45;97885.69;;;2.41;100.00
10464;BME280;5279;42.048;24.638;2023-01-26T07:50:12;97874.88;;;2.47;100.00
10464;BME280;5279;42.048;24.638;2023-01-26T07:52:39;97884.31;;;2.49;100.00
10464;BME280;5279;42.048;24.638;2023-01-26T07:55:09;97879.09;;;2.49;100.00
10464;BME280;5279;42.048;24.638;2023-01-26T07:57:36;97878.81;;;2.40;100.00
10464;BME280;5279;42.048;24.638;2023-01-26T08:00:04;97877.78;;;2.42;100.00
10464;BME280;5279;42.048;24.638;2023-01-26T08:02:31;97878.81;;;2.40;100.00
10464;BME280;5279;42.048;24.638;2023-01-26T08:04:57;97876.66;;;2.46;100.00
10464;BME280;5279;42.048;24.638;2023-01-26T08:07:24;97887.78;;;2.50;100.00
10464;BME280;5279;42.048;24.638;2023-01-26T08:09:51;97881.63;;;2.51;100.00
10464;BME280;5279;42.048;24.638;2023-01-26T08:12:19;97871.53;;;2.45;100.00
10464;BME280;5279;42.048;24.638;2023-01-26T08:14:46;97871.72;;;2.42;100.00
10464;BME280;5279;42.048;24.638;2023-01-26T08:17:13;97869.44;;;2.36;100.00
10464;BME280;5279;42.048;24.638;2023-01-26T08:19:41;97868.25;;;2.41;100.00
10464;BME280;5279;42.048;24.638;2023-01-26T08:22:08;97870.78;;;2.43;100.00
10464;BME280;5279;42.048;24.638;2023-01-26T08:24:35;97874.88;;;2.47;100.00
10464;BME280;5279;42.048;24.638;2023-01-26T08:27:02;97869.00;;;2.43;100.00
10464;BME280;5279;42.048;24.638;2023-01-26T08:29:30;97866.47;;;2.42;100.00
10464;BME280;5279;42.048;24.638;2023-01-26T08:31:57;97864.97;;;2.38;100.00
10464;BME280;5279;42.048;24.638;2023-01-26T08:34:24;97864.88;;;2.39;100.00
10464;BME280;5279;42.048;24.638;2023-01-26T08:36:51;97861.59;;;2.36;100.00
10464;BME280;5279;42.048;24.638;2023-01-26T08:39:18;97862.94;;;2.43;100.00
10464;BME280;5279;42.048;24.638;2023-01-26T08:41:45;97853.66;;;2.37;100.00
10464;BME280;5279;42.048;24.638;2023-01-26T08:44:12;97848.06;;;2.43;100.00
10464;BME280;5279;42.048;24.638;2023-01-26T08:46:42;97852.31;;;2.46;100.00
10464;BME280;5279;42.048;24.638;2023-01-26T08:49:09;97847.22;;;2.13;100.00
10464;BME280;5279;42.048;24.638;2023-01-26T08:51:36;97848.47;;;2.22;100.00
10464;BME280;5279;42.048;24.638;2023-01-26T08:54:04;97841.94;;;2.29;100.00
10464;BME280;5279;42.048;24.638;2023-01-26T08:56:32;97838.78;;;2.24;100.00
10464;BME280;5279;42.048;24.638;2023-01-26T08:59:01;97828.03;;;2.28;100.00
10464;BME280;5279;42.048;24.638;2023-01-26T09:01:27;97832.09;;;2.34;100.00
10464;BME280;5279;42.048;24.638;2023-01-26T09:03:56;97831.59;;;2.27;100.00
10464;BME280;5279;42.048;24.638;2023-01-26T09:06:22;97829.22;;;2.22;100.00
10464;BME280;5279;42.048;24.638;2023-01-26T09:08:49;97833.97;;;2.16;100.00
10464;BME280;5279;42.048;24.638;2023-01-26T09:11:16;97835.47;;;2.20;100.00
10464;BME280;5279;42.048;24.638;2023-01-26T09:13:55;97833.03;;;2.17;100.00
10464;BME280;5279;42.048;24.638;2023-01-26T09:16:23;97833.97;;;2.16;100.00
10464;BME280;5279;42.048;24.638;2023-01-26T09:18:50;97821.88;;;1.99;100.00
10464;BME280;5279;42.048;24.638;2023-01-26T09:21:20;97827.50;;;1.92;100.00
10464;BME280;5279;42.048;24.638;2023-01-26T09:23:48;97822.72;;;2.00;100.00
10464;BME280;5279;42.048;24.638;2023-01-26T09:26:15;97804.63;;;1.81;100.00
10464;BME280;5279;42.048;24.638;2023-01-26T09:28:42;97812.44;;;1.97;100.00
10464;BME280;5279;42.048;24.638;2023-01-26T09:31:10;97805.66;;;2.08;100.00
10464;BME280;5279;42.048;24.638;2023-01-26T09:33:37;97810.03;;;2.08;100.00
10464;BME280;5279;42.048;24.638;2023-01-26T09:36:05;97803.44;;;2.16;100.00
10464;BME280;5279;42.048;24.638;2023-01-26T09:38:34;97802.00;;;2.27;100.00
10464;BME280;5279;42.048;24.638;2023-01-26T09:41:05;97795.00;;;2.27;100.00
10464;BME280;5279;42.048;24.638;2023-01-26T09:43:37;97785.38;;;2.28;100.00
10464;BME280;5279;42.048;24.638;2023-01-26T09:46:18;97772.53;;;2.39;100.00
10464;BME280;5279;42.048;24.638;2023-01-26T09:48:52;97777.19;;;2.34;100.00
10464;BME280;5279;42.048;24.638;2023-01-26T09:51:28;97776.41;;;2.32;100.00
10464;BME280;5279;42.048;24.638;2023-01-26T09:54:03;97776.78;;;2.26;100.00
10464;BME280;5279;42.048;24.638;2023-01-26T09:56:31;97752.88;;;2.32;100.00
10464;BME280;5279;42.048;24.638;2023-01-26T09:59:03;97755.91;;;2.40;100.00
10464;BME280;5279;42.048;24.638;2023-01-26T10:01:37;97754.13;;;2.40;100.00
10464;BME280;5279;42.048;24.638;2023-01-26T10:04:13;97759.81;;;2.47;100.00
10464;BME280;5279;42.048;24.638;2023-01-26T10:06:45;97742.09;;;2.52;100.00
10464;BME280;5279;42.048;24.638;2023-01-26T10:09:16;97741.91;;;2.55;100.00
10464;BME280;5279;42.048;24.638;2023-01-26T10:11:47;97737.50;;;2.55;100.00
10464;BME280;5279;42.048;24.638;2023-01-26T10:14:20;97741.75;;;2.58;100.00
10464;BME280;5279;42.048;24.638;2023-01-26T10:16:55;97745.81;;;2.48;100.00
10464;BME280;5279;42.048;24.638;2023-01-26T10:19:30;97736.41;;;2.45;100.00
10464;BME280;5279;42.048;24.638;2023-01-26T10:22:01;97734.63;;;2.46;100.00
10464;BME280;5279;42.048;24.638;2023-01-26T10:24:32;97731.66;;;2.52;100.00
10464;BME280;5279;42.048;24.638;2023-01-26T10:26:59;97720.81;;;2.58;100.00
10464;BME280;5279;42.048;24.638;2023-01-26T10:29:26;97712.69;;;2.48;100.00
10464;BME280;5279;42.048;24.638;2023-01-26T10:31:53;97711.81;;;2.62;100.00
10464;BME280;5279;42.048;24.638;2023-01-26T10:34:22;97712.22;;;2.70;100.00
10464;BME280;5279;42.048;24.638;2023-01-26T10:36:52;97691.94;;;2.73;100.00
10464;BME280;5279;42.048;24.638;2023-01-26T10:39:22;97695.97;;;2.79;100.00
10464;BME280;5279;42.048;24.638;2023-01-26T10:41:58;97681.38;;;2.75;100.00
10464;BME280;5279;42.048;24.638;2023-01-26T10:44:30;97682.88;;;2.65;100.00
10464;BME280;5279;42.048;24.638;2023-01-26T10:47:04;97676.16;;;2.75;100.00
10464;BME280;5279;42.048;24.638;2023-01-26T10:49:32;97671.66;;;2.77;100.00
10464;BME280;5279;42.048;24.638;2023-01-26T10:52:06;97667.19;;;2.79;100.00
10464;BME280;5279;42.048;24.638;2023-01-26T10:54:33;97666.41;;;2.77;100.00
10464;BME280;5279;42.048;24.638;2023-01-26T10:57:04;97657.28;;;2.70;100.00
10464;BME280;5279;42.048;24.638;2023-01-26T10:59:33;97660.44;;;2.75;100.00
10464;BME280;5279;42.048;24.638;2023-01-26T11:02:20;97652.25;;;2.67;100.00
10464;BME280;5279;42.048;24.638;2023-01-26T11:05:13;97649.53;;;2.68;100.00
10464;BME280;5279;42.048;24.638;2023-01-26T11:07:41;97642.63;;;2.53;100.00
10464;BME280;5279;42.048;24.638;2023-01-26T11:10:20;97643.75;;;2.63;100.00
10464;BME280;5279;42.048;24.638;2023-01-26T11:12:50;97635.97;;;2.62;100.00
10464;BME280;5279;42.048;24.638;2023-01-26T11:15:19;97632.97;;;2.68;100.00
10464;BME280;5279;42.048;24.638;2023-01-26T11:17:52;97633.56;;;2.73;100.00
10464;BME280;5279;42.048;24.638;2023-01-26T11:20:41;97627.13;;;2.64;100.00
10464;BME280;5279;42.048;24.638;2023-01-26T11:23:17;97617.28;;;2.68;100.00
10464;BME280;5279;42.048;24.638;2023-01-26T11:26:09;97615.25;;;2.59;100.00
10464;BME280;5279;42.048;24.638;2023-01-26T11:28:49;97617.84;;;2.59;100.00
10464;BME280;5279;42.048;24.638;2023-01-26T11:31:30;97604.97;;;2.70;100.00
10464;BME280;5279;42.048;24.638;2023-01-26T11:34:08;97592.44;;;2.75;100.00
10464;BME280;5279;42.048;24.638;2023-01-26T11:36:48;97589.34;;;2.83;100.00
10464;BME280;5279;42.048;24.638;2023-01-26T11:39:24;97576.16;;;2.84;100.00
10464;BME280;5279;42.048;24.638;2023-01-26T11:42:04;97576.53;;;2.78;100.00
10464;BME280;5279;42.048;24.638;2023-01-26T11:44:59;97568.72;;;2.64;100.00
10464;BME280;5279;42.048;24.638;2023-01-26T11:47:40;97560.19;;;2.74;100.00
10464;BME280;5279;42.048;24.638;2023-01-26T11:50:18;97556.53;;;2.77;100.00
10464;BME280;5279;42.048;24.638;2023-01-26T11:52:57;97557.28;;;2.79;100.00
10464;BME280;5279;42.048;24.638;2023-01-26T11:55:39;97550.19;;;2.81;100.00
10464;BME280;5279;42.048;24.638;2023-01-26T11:58:19;97541.69;;;2.78;100.00
10464;BME280;5279;42.048;24.638;2023-01-26T12:00:52;97538.66;;;2.84;100.00
10464;BME280;5279;42.048;24.638;2023-01-26T12:03:24;97537.63;;;2.86;100.00
10464;BME280;5279;42.048;24.638;2023-01-26T12:05:56;97533.69;;;2.93;100.00
10464;BME280;5279;42.048;24.638;2023-01-26T12:08:26;97537.44;;;2.89;100.00
10464;BME280;5279;42.048;24.638;2023-01-26T12:11:05;97528.84;;;2.87;100.00
10464;BME280;5279;42.048;24.638;2023-01-26T12:14:09;97525.31;;;2.88;100.00
10464;BME280;5279;42.048;24.638;2023-01-26T12:16:55;97533.88;;;2.90;100.00
10464;BME280;5279;42.048;24.638;2023-01-26T12:19:34;97519.09;;;2.89;100.00
10464;BME280;5279;42.048;24.638;2023-01-26T12:22:07;97531.13;;;2.79;100.00
10464;BME280;5279;42.048;24.638;2023-01-26T12:24:40;97517.69;;;2.71;100.00
10464;BME280;5279;42.048;24.638;2023-01-26T12:27:15;97511.00;;;2.67;100.00
10464;BME280;5279;42.048;24.638;2023-01-26T12:29:48;97520.69;;;2.65;100.00
10464;BME280;5279;42.048;24.638;2023-01-26T12:32:19;97515.38;;;2.66;100.00
10464;BME280;5279;42.048;24.638;2023-01-26T12:34:47;97526.13;;;2.62;100.00
10464;BME280;5279;42.048;24.638;2023-01-26T12:37:41;97503.63;;;2.59;100.00
10464;BME280;5279;42.048;24.638;2023-01-26T12:40:20;97507.41;;;2.68;100.00
10464;BME280;5279;42.048;24.638;2023-01-26T12:42:56;97500.91;;;2.61;100.00
10464;BME280;5279;42.048;24.638;2023-01-26T12:45:29;97501.19;;;2.70;100.00
10464;BME280;5279;42.048;24.638;2023-01-26T12:48:05;97496.75;;;2.71;100.00
10464;BME280;5279;42.048;24.638;2023-01-26T12:50:39;97502.63;;;2.74;100.00
10464;BME280;5279;42.048;24.638;2023-01-26T12:53:13;97486.53;;;2.81;100.00
10464;BME280;5279;42.048;24.638;2023-01-26T12:55:44;97496.16;;;2.80;100.00
10464;BME280;5279;42.048;24.638;2023-01-26T12:58:17;97491.53;;;2.71;100.00
10464;BME280;5279;42.048;24.638;2023-01-26T13:00:51;97484.63;;;2.70;100.00
10464;BME280;5279;42.048;24.638;2023-01-26T13:03:24;97482.09;;;2.68;100.00
10464;BME280;5279;42.048;24.638;2023-01-26T13:05:57;97481.84;;;2.59;100.00
10464;BME280;5279;42.048;24.638;2023-01-26T13:08:47;97488.50;;;2.64;100.00
10464;BME280;5279;42.048;24.638;2023-01-26T13:11:51;97476.44;;;2.62;100.00
10464;BME280;5279;42.048;24.638;2023-01-26T13:14:36;97472.16;;;2.61;100.00
10464;BME280;5279;42.048;24.638;2023-01-26T13:17:40;97470.91;;;2.40;100.00
10464;BME280;5279;42.048;24.638;2023-01-26T13:20:22;97461.84;;;2.31;100.00
10464;BME280;5279;42.048;24.638;2023-01-26T13:22:50;97460.66;;;2.37;100.00
10464;BME280;5279;42.048;24.638;2023-01-26T13:25:18;97463.41;;;2.48;100.00